Metar Cercanos

 

LEPA - Palma De Mallorc, Spain
Distance from station: ONO 38km
Actualización: 12/12/2018 16:00
Few Clouds
Few Clouds
 Viento del NO
Viento: NO 9 km/h
Temperatura: 17°C
Rocío: 7°C
Humedad: 52%
Barómetro: 1017 hPa
Clouds: Few Clouds
Visibility: 10 km
Cloud details: Few Clouds 914 m
2018/12/12 15:00 LEPA 121500Z 32005KT 290V360 9999 FEW030 17/07 Q1017 NOSIG
LEMH - Mahon/Menorca Is, Spain
Distance from station: ENE 105km
Actualización: 12/12/2018 16:00
Parcialmente nuboso
Parcialmente nuboso
 Viento del ESE
Viento: ESE 7 km/h
Temperatura: 14°C
Rocío: 11°C
Humedad: 82%
Barómetro: 1017 hPa
Clouds: Parcialmente nuboso
Visibility: 10 km
Cloud details: Few Clouds 549 m
Parcialmente nuboso 1372 m
2018/12/12 15:00 LEMH 121500Z 11004KT 9999 FEW018 SCT045 14/11 Q1017
 
LEIB - Ibiza/Es Codola, Spain
Distance from station: OSO 165km
Actualización: 12/12/2018 16:00
Few Clouds
Few Clouds
 Viento del SE
Viento: SE 7 km/h
Temperatura: 17°C
Rocío: 13°C
Humedad: 77%
Barómetro: 1018 hPa
Clouds: Few Clouds
Visibility: 10 km
Cloud details: Few Clouds 610 m
2018/12/12 15:00 LEIB 121500Z 13004KT 070V160 9999 FEW020 17/13 Q1018 NOSIG
LEBL - Barcelona Airpor, Spain
Distance from station: NNO 225km
Actualización: 12/12/2018 16:00
Few Clouds
Few Clouds
 Viento del ESE
Viento: ESE 6 km/h
Temperatura: 14°C
Rocío: 9°C
Humedad: 72%
Barómetro: 1017 hPa
Clouds: Few Clouds
Visibility: 10 km
Cloud details: Few Clouds 853 m
2018/12/12 15:00 LEBL 121500Z 12003KT 100V160 9999 FEW028 14/09 Q1017 NOSIG
 
LEVC - Valencia (civ/Mi, Spain
Distance from station: NO 188km
Actualización: 12/12/2018 16:00
Despejado
Despejado
 Viento del SSO
Viento: SSO 15 km/h
Temperatura: 19°C
Rocío: 8°C
Humedad: 49%
Barómetro: 1016 hPa
Resumen: Despejado
Visibility: greater than 10 km
2018/12/12 15:00 LEVC 121500Z 21008KT CAVOK 19/08 Q1016 NOSIG
LEGE - Gerona/Costa Bra, Spain
Distance from station: N 276km
Actualización: 12/12/2018 16:00
Few Clouds
Few Clouds
 Viento del S
Viento: S 11 km/h
Temperatura: 12°C
Rocío: 9°C
Humedad: 82%
Barómetro: 1017 hPa
Clouds: Few Clouds
Visibility: 10 km
Cloud details: Few Clouds 640 m
2018/12/12 15:00 LEGE 121500Z 18006KT 9999 FEW021 12/09 Q1017
 
LEAL - Alicante/El Alte, Spain
Distance from station: OSO 344km
Actualización: 12/12/2018 16:00
Despejado
Despejado
 Viento del E
Viento: E 7 km/h
Temperatura: 18°C
Rocío: 8°C
Humedad: 52%
Barómetro: 1017 hPa
Resumen: Despejado
Visibility: greater than 10 km
2018/12/12 15:00 LEAL 121500Z 10004KT 070V130 CAVOK 18/08 Q1017 NOSIG
LEAM - Almeria Airport, Spain
Distance from station: SSO 56km
Actualización: 12/12/2018 16:00
Despejado
Despejado
 Viento del SSO
Viento: SSO 17 km/h
Temperatura: 18°C
Rocío: 12°C
Humedad: 68%
Barómetro: 1018 hPa
Resumen: Despejado
Visibility: greater than 10 km
2018/12/12 15:00 LEAM 121500Z 21009KT CAVOK 18/12 Q1018
 
LEZG - Zaragoza (mil/Ci, Spain
Distance from station: NO 431km
Actualización: 12/12/2018 16:00
Few Clouds
Few Clouds
 Viento del ONO
Viento: ONO 7 km/h
Temperatura: 14°C
Rocío: 7°C
Humedad: 63%
Barómetro: 1017 hPa
Clouds: Few Clouds
Visibility: 10 km
Cloud details: Few Clouds 2438 m
2018/12/12 15:00 LEZG 121500Z 30004KT 9999 FEW080 14/07 Q1017
LEMD - Madrid/Barajas, Spain
Distance from station: ONO 234km
Actualización: 12/12/2018 16:00
Mist, Cubierto
Mist, Cubierto
 Viento del varies
Viento: varies 4 km/h
Temperatura: 7°C
Rocío: 6°C
Humedad: 93%
Barómetro: 1020 hPa
Resumen: Mist
Clouds: Cubierto
Visibility: 4 km
Cloud details: Parcialmente nuboso 274 m
Cubierto 457 m
2018/12/12 15:00 LEMD 121500Z VRB02KT 4200 BR SCT009 OVC015 07/06 Q1020 NOSIG
 
LEGR - Granada Airport, Spain
Distance from station: OSO 62km
Actualización: 12/12/2018 16:00
Despejado
Despejado
 Viento del calm
Viento: Calma
Temperatura: 15°C
Rocío: 8°C
Humedad: 63%
Barómetro: 1021 hPa
Resumen: Despejado
Visibility: greater than 10 km
2018/12/12 15:00 LEGR 121500Z 00000KT CAVOK 15/08 Q1021
LEMG - Malaga (civ/Mil), Spain
Distance from station: OSO 227km
Actualización: 12/12/2018 16:00
Few Clouds
Few Clouds
 Viento del ONO
Viento: ONO 20 km/h
Temperatura: 19°C
Rocío: 10°C
Humedad: 56%
Barómetro: 1019 hPa
Clouds: Few Clouds
Visibility: 10 km
Cloud details: Few Clouds 610 m
2018/12/12 15:00 LEMG 121500Z 30011KT 260V320 9999 FEW020 19/10 Q1019 NOSIG
 
LEZL - Sevilla (civ/Mil, Spain
Distance from station: S 318km
Actualización: 12/12/2018 16:00
Muy nuboso
Muy nuboso
 Viento del ONO
Viento: ONO 11 km/h
Temperatura: 18°C
Rocío: 10°C
Humedad: 60%
Barómetro: 1021 hPa
Clouds: Muy nuboso
Visibility: 10 km
Cloud details: Few Clouds 1067 m
Muy nuboso 1219 m
2018/12/12 15:00 LEZL 121500Z 29006KT 260V320 9999 FEW035 BKN040 18/10 Q1021 NOSIG
LEVT - Vitoria, Spain
Distance from station: NO 226km
Actualización: 12/12/2018 16:00
Muy nuboso
Muy nuboso
 Viento del varies
Viento: varies 2 km/h
Temperatura: 10°C
Rocío: 6°C
Humedad: 76%
Barómetro: 1017 hPa
Clouds: Muy nuboso
Visibility: 10 km
Cloud details: Parcialmente nuboso 914 m
Muy nuboso 2134 m
2018/12/12 15:00 LEVT 121500Z VRB01KT 9999 SCT030 BKN070 10/06 Q1017
 
LEBB - Bilbao/Sondica, Spain
Distance from station: NNO 235km
Actualización: 12/12/2018 16:00
Parcialmente nuboso
Parcialmente nuboso
 Viento del ESE
Viento: ESE 7 km/h
Temperatura: 13°C
Rocío: 9°C
Humedad: 77%
Barómetro: 1018 hPa
Clouds: Parcialmente nuboso
Visibility: 10 km
Cloud details: Parcialmente nuboso 1676 m
2018/12/12 15:00 LEBB 121500Z 12004KT 090V150 9999 SCT055 13/09 Q1018 NOSIG
LESO - San Sebastian/Fu, Spain
Distance from station: N 231km
Actualización: 12/12/2018 16:00
Few Clouds
Few Clouds
 Viento del varies
Viento: varies 2 km/h
Temperatura: 14°C
Rocío: 8°C
Humedad: 67%
Barómetro: 1018 hPa
Clouds: Few Clouds
Visibility: 10 km
Cloud details: Few Clouds 762 m
2018/12/12 15:00 LESO 121500Z VRB01KT 9999 FEW025 14/08 Q1018
 
LEVD - Valladolid(Mil/C, Spain
Distance from station: ONO 239km
Actualización: 12/12/2018 16:00
Cubierto
Cubierto
 Viento del O
Viento: O 15 km/h
Temperatura: 6°C
Sensación frio: 3°C
Rocío: 6°C
Humedad: 100%
Barómetro: 1019 hPa
Clouds: Cubierto
Visibility: 10 km
Cloud details: Cubierto 244 m
2018/12/12 15:00 LEVD 121500Z 27008KT 9999 OVC008 06/06 Q1019
LESA - Salamanca (civ/M, Spain
Distance from station: ONO 349km
Actualización: 12/12/2018 16:00
Cubierto
Cubierto
 Viento del O
Viento: O 17 km/h
Temperatura: 7°C
Sensación frio: 4°C
Rocío: 5°C
Humedad: 87%
Barómetro: 1020 hPa
Clouds: Cubierto
Visibility: 6 km
Cloud details: Cubierto 244 m
2018/12/12 15:00 LESA 121500Z 27009KT 240V300 6000 OVC008 07/05 Q1020
 
LEXJ - Santander/Paraya, Spain
Distance from station: NNO 247km
Actualización: 12/12/2018 16:00
Few Clouds
Few Clouds
 Viento del varies
Viento: varies 2 km/h
Temperatura: 13°C
Rocío: 9°C
Humedad: 77%
Barómetro: 1017 hPa
Clouds: Few Clouds
Visibility: 10 km
Cloud details: Few Clouds 1829 m
2018/12/12 15:00 LEXJ 121500Z VRB01KT 9999 FEW060 13/09 Q1017
LEAS - Asturias/Aviles, Spain
Distance from station: NO 214km
Actualización: 12/12/2018 16:00
Few Clouds
Few Clouds
 Viento del ESE
Viento: ESE 9 km/h
Temperatura: 12°C
Rocío: 8°C
Humedad: 77%
Barómetro: 1015 hPa
Clouds: Few Clouds
Visibility: 10 km
Cloud details: Few Clouds 610 m
2018/12/12 15:00 LEAS 121500Z 12005KT 080V160 9999 FEW020 12/08 Q1015 NOSIG
 
LECO - La Coruna/Alvedr, Spain
Distance from station: ONO 222km
Actualización: 12/12/2018 16:00
Parcialmente nuboso
Parcialmente nuboso
 Viento del S
Viento: S 19 km/h, Racha: 41 km/h
Temperatura: 13°C
Rocío: 9°C
Humedad: 77%
Barómetro: 1014 hPa
Clouds: Parcialmente nuboso
Visibility: 10 km
Cloud details: Few Clouds 671 m
Parcialmente nuboso 792 m
2018/12/12 15:00 LECO 121500Z 18010G22KT 130V220 9999 FEW022 SCT026 13/09 Q1014 NOSIG
LEVX - Vigo/Peinador, Spain
Distance from station: O 214km
Actualización: 12/12/2018 16:00
Muy nuboso
Muy nuboso
 Viento del SSO
Viento: SSO 22 km/h
Temperatura: 13°C
Rocío: 10°C
Humedad: 82%
Barómetro: 1017 hPa
Clouds: Muy nuboso
Visibility: 10 km
Cloud details: Few Clouds 427 m
Muy nuboso 579 m
Muy nuboso 762 m
2018/12/12 15:00 LEVX 121500Z 20012KT 170V240 9999 FEW014 BKN019 BKN025 13/10 Q1017 NOSIG